sensor_id;sensor_type;location;lat;lon;timestamp;temperature;humidity
75819;DHT22;64453;51.944;9.796;2023-07-28T00:00:35;20.70;92.00
75819;DHT22;64453;51.944;9.796;2023-07-28T00:03:03;20.40;92.40
75819;DHT22;64453;51.944;9.796;2023-07-28T00:05:31;20.50;93.00
75819;DHT22;64453;51.944;9.796;2023-07-28T00:07:58;20.60;92.40
75819;DHT22;64453;51.944;9.796;2023-07-28T00:10:25;20.50;93.00
75819;DHT22;64453;51.944;9.796;2023-07-28T00:12:52;20.70;92.80
75819;DHT22;64453;51.944;9.796;2023-07-28T00:15:19;20.80;92.10
75819;DHT22;64453;51.944;9.796;2023-07-28T00:17:46;20.90;91.60
75819;DHT22;64453;51.944;9.796;2023-07-28T00:20:15;20.60;91.70
75819;DHT22;64453;51.944;9.796;2023-07-28T00:22:42;20.60;92.50
75819;DHT22;64453;51.944;9.796;2023-07-28T00:25:09;20.70;92.00
75819;DHT22;64453;51.944;9.796;2023-07-28T00:27:36;20.50;91.60
75819;DHT22;64453;51.944;9.796;2023-07-28T00:30:05;20.20;92.40
75819;DHT22;64453;51.944;9.796;2023-07-28T00:32:32;20.40;92.50
75819;DHT22;64453;51.944;9.796;2023-07-28T00:35:00;20.80;92.20
75819;DHT22;64453;51.944;9.796;2023-07-28T00:37:28;20.90;91.20
75819;DHT22;64453;51.944;9.796;2023-07-28T00:39:57;21.10;91.10
75819;DHT22;64453;51.944;9.796;2023-07-28T00:42:24;21.20;90.80
75819;DHT22;64453;51.944;9.796;2023-07-28T00:44:51;21.30;90.30
75819;DHT22;64453;51.944;9.796;2023-07-28T00:47:18;21.30;90.20
75819;DHT22;64453;51.944;9.796;2023-07-28T00:49:45;21.20;90.40
75819;DHT22;64453;51.944;9.796;2023-07-28T00:52:12;21.20;90.50
75819;DHT22;64453;51.944;9.796;2023-07-28T00:54:41;21.20;90.20
75819;DHT22;64453;51.944;9.796;2023-07-28T00:57:08;21.00;90.60
75819;DHT22;64453;51.944;9.796;2023-07-28T00:59:35;21.00;91.00
75819;DHT22;64453;51.944;9.796;2023-07-28T01:02:02;20.80;90.60
75819;DHT22;64453;51.944;9.796;2023-07-28T01:04:30;21.10;91.00
75819;DHT22;64453;51.944;9.796;2023-07-28T01:07:03;21.20;90.40
75819;DHT22;64453;51.944;9.796;2023-07-28T01:09:40;21.30;89.90
75819;DHT22;64453;51.944;9.796;2023-07-28T01:12:13;21.20;90.30
75819;DHT22;64453;51.944;9.796;2023-07-28T01:14:40;21.30;90.00
75819;DHT22;64453;51.944;9.796;2023-07-28T01:17:08;21.30;90.00
75819;DHT22;64453;51.944;9.796;2023-07-28T01:19:35;21.30;90.00
75819;DHT22;64453;51.944;9.796;2023-07-28T01:22:19;21.30;90.00
75819;DHT22;64453;51.944;9.796;2023-07-28T01:25:06;21.20;90.50
75819;DHT22;64453;51.944;9.796;2023-07-28T01:27:43;21.10;89.40
75819;DHT22;64453;51.944;9.796;2023-07-28T01:30:11;21.10;90.10
75819;DHT22;64453;51.944;9.796;2023-07-28T01:32:38;21.30;90.00
75819;DHT22;64453;51.944;9.796;2023-07-28T01:35:06;21.00;90.30
75819;DHT22;64453;51.944;9.796;2023-07-28T01:37:35;21.00;90.50
75819;DHT22;64453;51.944;9.796;2023-07-28T01:40:02;21.30;90.30
75819;DHT22;64453;51.944;9.796;2023-07-28T01:42:30;20.70;89.20
75819;DHT22;64453;51.944;9.796;2023-07-28T01:44:58;20.70;91.40
75819;DHT22;64453;51.944;9.796;2023-07-28T01:47:26;20.80;91.00
75819;DHT22;64453;51.944;9.796;2023-07-28T01:49:53;21.10;91.10
75819;DHT22;64453;51.944;9.796;2023-07-28T01:52:20;21.00;90.60
75819;DHT22;64453;51.944;9.796;2023-07-28T01:54:48;21.20;90.60
75819;DHT22;64453;51.944;9.796;2023-07-28T01:57:15;21.10;90.60
75819;DHT22;64453;51.944;9.796;2023-07-28T01:59:43;21.10;90.90
75819;DHT22;64453;51.944;9.796;2023-07-28T02:02:11;21.20;90.30
75819;DHT22;64453;51.944;9.796;2023-07-28T02:04:39;21.20;90.30
75819;DHT22;64453;51.944;9.796;2023-07-28T02:07:06;21.10;90.20
75819;DHT22;64453;51.944;9.796;2023-07-28T02:09:33;21.00;90.10
75819;DHT22;64453;51.944;9.796;2023-07-28T02:12:00;20.90;90.90
75819;DHT22;64453;51.944;9.796;2023-07-28T02:14:27;20.80;91.00
75819;DHT22;64453;51.944;9.796;2023-07-28T02:16:54;20.80;90.00
75819;DHT22;64453;51.944;9.796;2023-07-28T02:19:24;20.80;91.20
75819;DHT22;64453;51.944;9.796;2023-07-28T02:21:51;20.90;91.40
75819;DHT22;64453;51.944;9.796;2023-07-28T02:24:18;20.80;91.20
75819;DHT22;64453;51.944;9.796;2023-07-28T02:26:45;21.00;90.40
75819;DHT22;64453;51.944;9.796;2023-07-28T02:29:12;21.20;90.10
75819;DHT22;64453;51.944;9.796;2023-07-28T02:31:40;21.20;90.00
75819;DHT22;64453;51.944;9.796;2023-07-28T02:34:08;21.20;90.00
75819;DHT22;64453;51.944;9.796;2023-07-28T02:36:37;21.10;90.10
75819;DHT22;64453;51.944;9.796;2023-07-28T02:39:04;21.20;90.00
75819;DHT22;64453;51.944;9.796;2023-07-28T02:41:31;21.20;89.40
75819;DHT22;64453;51.944;9.796;2023-07-28T02:43:58;21.30;89.30
75819;DHT22;64453;51.944;9.796;2023-07-28T02:46:25;21.30;89.70
75819;DHT22;64453;51.944;9.796;2023-07-28T02:48:52;21.30;89.50
75819;DHT22;64453;51.944;9.796;2023-07-28T02:51:20;21.20;89.80
75819;DHT22;64453;51.944;9.796;2023-07-28T02:53:48;21.10;90.10
75819;DHT22;64453;51.944;9.796;2023-07-28T02:56:22;20.90;89.60
75819;DHT22;64453;51.944;9.796;2023-07-28T02:58:49;20.40;91.00
75819;DHT22;64453;51.944;9.796;2023-07-28T03:01:17;20.30;92.00
75819;DHT22;64453;51.944;9.796;2023-07-28T03:03:44;20.00;92.90
75819;DHT22;64453;51.944;9.796;2023-07-28T03:06:13;20.20;93.00
75819;DHT22;64453;51.944;9.796;2023-07-28T03:08:40;19.80;92.20
75819;DHT22;64453;51.944;9.796;2023-07-28T03:11:08;20.00;93.70
75819;DHT22;64453;51.944;9.796;2023-07-28T03:13:35;20.30;93.00
75819;DHT22;64453;51.944;9.796;2023-07-28T03:16:03;20.10;92.50
75819;DHT22;64453;51.944;9.796;2023-07-28T03:18:30;20.00;93.20
75819;DHT22;64453;51.944;9.796;2023-07-28T03:20:58;20.30;92.80
75819;DHT22;64453;51.944;9.796;2023-07-28T03:23:25;20.50;91.70
75819;DHT22;64453;51.944;9.796;2023-07-28T03:25:52;20.30;91.60
75819;DHT22;64453;51.944;9.796;2023-07-28T03:28:21;20.20;92.90
75819;DHT22;64453;51.944;9.796;2023-07-28T03:30:48;20.10;93.30
75819;DHT22;64453;51.944;9.796;2023-07-28T03:33:15;19.90;93.80
75819;DHT22;64453;51.944;9.796;2023-07-28T03:35:43;19.70;93.90
75819;DHT22;64453;51.944;9.796;2023-07-28T03:38:10;20.00;94.10
75819;DHT22;64453;51.944;9.796;2023-07-28T03:40:38;20.10;93.60
75819;DHT22;64453;51.944;9.796;2023-07-28T03:43:05;19.80;93.70
75819;DHT22;64453;51.944;9.796;2023-07-28T03:45:33;19.80;94.40
75819;DHT22;64453;51.944;9.796;2023-07-28T03:48:00;19.60;94.90
75819;DHT22;64453;51.944;9.796;2023-07-28T03:50:28;19.60;95.30
75819;DHT22;64453;51.944;9.796;2023-07-28T03:52:55;19.60;95.60
75819;DHT22;64453;51.944;9.796;2023-07-28T03:55:22;19.50;95.90
75819;DHT22;64453;51.944;9.796;2023-07-28T03:57:49;19.70;95.70
75819;DHT22;64453;51.944;9.796;2023-07-28T04:00:16;19.80;94.40
75819;DHT22;64453;51.944;9.796;2023-07-28T04:02:45;19.60;95.80
75819;DHT22;64453;51.944;9.796;2023-07-28T04:05:12;19.70;94.60
75819;DHT22;64453;51.944;9.796;2023-07-28T04:07:39;19.90;94.20
75819;DHT22;64453;51.944;9.796;2023-07-28T04:10:08;20.00;94.30
75819;DHT22;64453;51.944;9.796;2023-07-28T04:12:35;19.80;94.80
75819;DHT22;64453;51.944;9.796;2023-07-28T04:15:03;20.00;94.10
75819;DHT22;64453;51.944;9.796;2023-07-28T04:17:30;19.70;93.80
75819;DHT22;64453;51.944;9.796;2023-07-28T04:19:59;20.00;94.20
75819;DHT22;64453;51.944;9.796;2023-07-28T04:22:27;19.70;93.20
75819;DHT22;64453;51.944;9.796;2023-07-28T04:24:54;20.00;94.30
75819;DHT22;64453;51.944;9.796;2023-07-28T04:27:21;19.80;94.10
75819;DHT22;64453;51.944;9.796;2023-07-28T04:29:48;20.10;93.70
75819;DHT22;64453;51.944;9.796;2023-07-28T04:32:16;20.40;92.20
75819;DHT22;64453;51.944;9.796;2023-07-28T04:34:44;20.10;93.20
75819;DHT22;64453;51.944;9.796;2023-07-28T04:37:13;20.50;92.60
75819;DHT22;64453;51.944;9.796;2023-07-28T04:39:40;20.30;92.40
75819;DHT22;64453;51.944;9.796;2023-07-28T04:42:07;20.60;91.90
75819;DHT22;64453;51.944;9.796;2023-07-28T04:44:35;20.70;90.80
75819;DHT22;64453;51.944;9.796;2023-07-28T04:47:03;20.10;92.00
75819;DHT22;64453;51.944;9.796;2023-07-28T04:49:30;20.10;92.40
75819;DHT22;64453;51.944;9.796;2023-07-28T04:51:57;19.70;93.30
75819;DHT22;64453;51.944;9.796;2023-07-28T04:54:26;19.70;94.60
75819;DHT22;64453;51.944;9.796;2023-07-28T04:56:53;19.30;96.30
75819;DHT22;64453;51.944;9.796;2023-07-28T04:59:20;19.70;95.80
75819;DHT22;64453;51.944;9.796;2023-07-28T05:01:47;19.70;95.00
75819;DHT22;64453;51.944;9.796;2023-07-28T05:04:15;19.90;93.50
75819;DHT22;64453;51.944;9.796;2023-07-28T05:06:42;19.70;93.50
75819;DHT22;64453;51.944;9.796;2023-07-28T05:09:09;20.10;93.70
75819;DHT22;64453;51.944;9.796;2023-07-28T05:11:37;20.40;91.70
75819;DHT22;64453;51.944;9.796;2023-07-28T05:14:04;20.30;92.40
75819;DHT22;64453;51.944;9.796;2023-07-28T05:16:34;20.10;92.40
75819;DHT22;64453;51.944;9.796;2023-07-28T05:19:01;20.20;92.50
75819;DHT22;64453;51.944;9.796;2023-07-28T05:21:28;20.10;93.20
75819;DHT22;64453;51.944;9.796;2023-07-28T05:23:56;20.10;93.30
75819;DHT22;64453;51.944;9.796;2023-07-28T05:26:24;20.50;92.40
75819;DHT22;64453;51.944;9.796;2023-07-28T05:28:52;20.80;91.60
75819;DHT22;64453;51.944;9.796;2023-07-28T05:31:19;20.30;91.40
75819;DHT22;64453;51.944;9.796;2023-07-28T05:33:47;20.10;93.20
75819;DHT22;64453;51.944;9.796;2023-07-28T05:36:15;20.10;92.20
75819;DHT22;64453;51.944;9.796;2023-07-28T05:38:42;20.10;93.20
75819;DHT22;64453;51.944;9.796;2023-07-28T05:41:09;20.70;92.20
75819;DHT22;64453;51.944;9.796;2023-07-28T05:43:37;20.40;91.30
75819;DHT22;64453;51.944;9.796;2023-07-28T05:46:05;20.50;91.40
75819;DHT22;64453;51.944;9.796;2023-07-28T05:48:33;20.50;91.20
75819;DHT22;64453;51.944;9.796;2023-07-28T05:51:00;20.60;91.20
75819;DHT22;64453;51.944;9.796;2023-07-28T05:53:28;20.70;90.80
75819;DHT22;64453;51.944;9.796;2023-07-28T05:55:55;20.70;90.80
75819;DHT22;64453;51.944;9.796;2023-07-28T05:58:22;20.60;90.60
75819;DHT22;64453;51.944;9.796;2023-07-28T06:00:49;20.70;90.40
75819;DHT22;64453;51.944;9.796;2023-07-28T06:03:17;20.70;90.60
75819;DHT22;64453;51.944;9.796;2023-07-28T06:05:44;20.80;90.40
75819;DHT22;64453;51.944;9.796;2023-07-28T06:08:12;21.10;89.20
75819;DHT22;64453;51.944;9.796;2023-07-28T06:10:39;21.10;88.40
75819;DHT22;64453;51.944;9.796;2023-07-28T06:13:06;21.20;88.10
75819;DHT22;64453;51.944;9.796;2023-07-28T06:15:33;21.30;87.30
75819;DHT22;64453;51.944;9.796;2023-07-28T06:18:02;21.20;86.40
75819;DHT22;64453;51.944;9.796;2023-07-28T06:20:30;21.30;87.10
75819;DHT22;64453;51.944;9.796;2023-07-28T06:22:57;21.50;86.80
75819;DHT22;64453;51.944;9.796;2023-07-28T06:25:25;21.30;85.50
75819;DHT22;64453;51.944;9.796;2023-07-28T06:27:52;21.30;85.80
75819;DHT22;64453;51.944;9.796;2023-07-28T06:30:22;21.40;86.80
75819;DHT22;64453;51.944;9.796;2023-07-28T06:32:49;21.50;86.00
75819;DHT22;64453;51.944;9.796;2023-07-28T06:35:17;21.60;86.10
75819;DHT22;64453;51.944;9.796;2023-07-28T06:37:46;20.80;86.20
75819;DHT22;64453;51.944;9.796;2023-07-28T06:40:14;20.90;87.40
75819;DHT22;64453;51.944;9.796;2023-07-28T06:42:41;20.70;87.90
75819;DHT22;64453;51.944;9.796;2023-07-28T06:45:09;20.90;87.60
75819;DHT22;64453;51.944;9.796;2023-07-28T06:47:36;20.90;88.30
75819;DHT22;64453;51.944;9.796;2023-07-28T06:50:04;21.10;87.60
75819;DHT22;64453;51.944;9.796;2023-07-28T06:52:32;21.40;86.40
75819;DHT22;64453;51.944;9.796;2023-07-28T06:55:01;21.30;85.20
75819;DHT22;64453;51.944;9.796;2023-07-28T06:57:28;21.10;86.70
75819;DHT22;64453;51.944;9.796;2023-07-28T06:59:56;21.10;86.10
75819;DHT22;64453;51.944;9.796;2023-07-28T07:02:23;21.00;86.50
75819;DHT22;64453;51.944;9.796;2023-07-28T07:04:51;20.40;88.50
75819;DHT22;64453;51.944;9.796;2023-07-28T07:07:18;20.60;90.30
75819;DHT22;64453;51.944;9.796;2023-07-28T07:09:45;20.80;89.60
75819;DHT22;64453;51.944;9.796;2023-07-28T07:12:13;20.90;88.30
75819;DHT22;64453;51.944;9.796;2023-07-28T07:14:41;20.70;90.20
75819;DHT22;64453;51.944;9.796;2023-07-28T07:17:13;21.10;89.40
75819;DHT22;64453;51.944;9.796;2023-07-28T07:19:40;21.30;87.60
75819;DHT22;64453;51.944;9.796;2023-07-28T07:22:07;21.50;86.70
75819;DHT22;64453;51.944;9.796;2023-07-28T07:24:34;21.50;86.40
75819;DHT22;64453;51.944;9.796;2023-07-28T07:27:02;21.40;83.90
75819;DHT22;64453;51.944;9.796;2023-07-28T07:29:32;21.40;86.40
75819;DHT22;64453;51.944;9.796;2023-07-28T07:31:59;21.60;84.70
75819;DHT22;64453;51.944;9.796;2023-07-28T07:34:26;21.50;84.70
75819;DHT22;64453;51.944;9.796;2023-07-28T07:36:53;21.40;86.00
75819;DHT22;64453;51.944;9.796;2023-07-28T07:39:23;21.20;86.70
75819;DHT22;64453;51.944;9.796;2023-07-28T07:41:50;21.10;86.70
75819;DHT22;64453;51.944;9.796;2023-07-28T07:44:17;21.30;86.60
75819;DHT22;64453;51.944;9.796;2023-07-28T07:46:50;21.40;87.40
75819;DHT22;64453;51.944;9.796;2023-07-28T07:49:17;21.50;85.80
75819;DHT22;64453;51.944;9.796;2023-07-28T07:51:44;21.30;85.50
75819;DHT22;64453;51.944;9.796;2023-07-28T07:54:11;21.20;86.70
75819;DHT22;64453;51.944;9.796;2023-07-28T07:56:41;21.20;88.70
75819;DHT22;64453;51.944;9.796;2023-07-28T07:59:08;21.40;86.90
75819;DHT22;64453;51.944;9.796;2023-07-28T08:01:35;21.40;87.40
75819;DHT22;64453;51.944;9.796;2023-07-28T08:04:04;20.90;86.60
75819;DHT22;64453;51.944;9.796;2023-07-28T08:06:31;21.00;87.40
75819;DHT22;64453;51.944;9.796;2023-07-28T08:08:58;20.80;88.80
75819;DHT22;64453;51.944;9.796;2023-07-28T08:11:25;20.70;89.70
75819;DHT22;64453;51.944;9.796;2023-07-28T08:13:53;21.00;90.10
75819;DHT22;64453;51.944;9.796;2023-07-28T08:16:20;21.20;88.70
75819;DHT22;64453;51.944;9.796;2023-07-28T08:18:47;21.40;87.60
75819;DHT22;64453;51.944;9.796;2023-07-28T08:21:16;21.70;86.80
75819;DHT22;64453;51.944;9.796;2023-07-28T08:23:43;21.80;86.10
75819;DHT22;64453;51.944;9.796;2023-07-28T08:26:11;22.00;84.50
75819;DHT22;64453;51.944;9.796;2023-07-28T08:28:39;21.60;83.90
75819;DHT22;64453;51.944;9.796;2023-07-28T08:31:06;21.60;86.10
75819;DHT22;64453;51.944;9.796;2023-07-28T08:33:33;21.60;84.90
75819;DHT22;64453;51.944;9.796;2023-07-28T08:36:01;21.40;85.00
75819;DHT22;64453;51.944;9.796;2023-07-28T08:38:29;21.50;85.90
75819;DHT22;64453;51.944;9.796;2023-07-28T08:40:58;21.40;88.00
75819;DHT22;64453;51.944;9.796;2023-07-28T08:43:25;21.10;87.90
75819;DHT22;64453;51.944;9.796;2023-07-28T08:45:54;21.00;88.90
75819;DHT22;64453;51.944;9.796;2023-07-28T08:48:21;21.30;89.60
75819;DHT22;64453;51.944;9.796;2023-07-28T08:50:49;21.10;88.00
75819;DHT22;64453;51.944;9.796;2023-07-28T08:53:16;20.90;90.40
75819;DHT22;64453;51.944;9.796;2023-07-28T08:55:45;21.30;90.90
75819;DHT22;64453;51.944;9.796;2023-07-28T08:58:17;21.20;90.50
75819;DHT22;64453;51.944;9.796;2023-07-28T09:00:46;21.40;90.90
75819;DHT22;64453;51.944;9.796;2023-07-28T09:03:15;21.40;90.40
75819;DHT22;64453;51.944;9.796;2023-07-28T09:05:43;20.80;90.00
75819;DHT22;64453;51.944;9.796;2023-07-28T09:08:13;20.90;91.10
75819;DHT22;64453;51.944;9.796;2023-07-28T09:10:41;20.80;91.00
75819;DHT22;64453;51.944;9.796;2023-07-28T09:13:11;21.30;91.30
75819;DHT22;64453;51.944;9.796;2023-07-28T09:15:39;21.60;89.20
75819;DHT22;64453;51.944;9.796;2023-07-28T09:18:08;21.50;88.10
75819;DHT22;64453;51.944;9.796;2023-07-28T09:20:37;21.80;87.10
75819;DHT22;64453;51.944;9.796;2023-07-28T09:23:05;21.40;88.20
75819;DHT22;64453;51.944;9.796;2023-07-28T09:25:34;21.30;89.20
75819;DHT22;64453;51.944;9.796;2023-07-28T09:28:01;21.70;88.20
75819;DHT22;64453;51.944;9.796;2023-07-28T09:30:47;21.90;86.70
75819;DHT22;64453;51.944;9.796;2023-07-28T09:33:29;22.10;84.80
75819;DHT22;64453;51.944;9.796;2023-07-28T09:35:57;22.30;84.60
75819;DHT22;64453;51.944;9.796;2023-07-28T09:38:27;22.10;84.40
75819;DHT22;64453;51.944;9.796;2023-07-28T09:40:57;22.00;83.40
75819;DHT22;64453;51.944;9.796;2023-07-28T09:43:24;22.30;83.60
75819;DHT22;64453;51.944;9.796;2023-07-28T09:45:53;22.70;83.20
75819;DHT22;64453;51.944;9.796;2023-07-28T09:48:22;22.80;81.20
75819;DHT22;64453;51.944;9.796;2023-07-28T09:50:51;22.40;82.70
75819;DHT22;64453;51.944;9.796;2023-07-28T09:53:19;22.20;82.70
75819;DHT22;64453;51.944;9.796;2023-07-28T09:55:49;22.20;83.20
75819;DHT22;64453;51.944;9.796;2023-07-28T09:58:17;22.00;82.30
75819;DHT22;64453;51.944;9.796;2023-07-28T10:00:48;22.40;83.70
75819;DHT22;64453;51.944;9.796;2023-07-28T10:03:18;22.00;83.60
75819;DHT22;64453;51.944;9.796;2023-07-28T10:05:45;22.20;83.40
75819;DHT22;64453;51.944;9.796;2023-07-28T10:08:13;22.50;84.10
75819;DHT22;64453;51.944;9.796;2023-07-28T10:10:41;22.40;83.30
75819;DHT22;64453;51.944;9.796;2023-07-28T10:13:19;22.50;84.70
75819;DHT22;64453;51.944;9.796;2023-07-28T10:15:47;22.60;83.00
75819;DHT22;64453;51.944;9.796;2023-07-28T10:18:15;22.50;80.40
75819;DHT22;64453;51.944;9.796;2023-07-28T10:20:43;22.50;80.50
75819;DHT22;64453;51.944;9.796;2023-07-28T10:23:16;22.50;80.30
75819;DHT22;64453;51.944;9.796;2023-07-28T10:25:45;22.80;81.50
75819;DHT22;64453;51.944;9.796;2023-07-28T10:28:26;22.50;81.20
75819;DHT22;64453;51.944;9.796;2023-07-28T10:30:58;23.00;79.20
75819;DHT22;64453;51.944;9.796;2023-07-28T10:33:28;23.20;78.80
75819;DHT22;64453;51.944;9.796;2023-07-28T10:35:57;23.30;78.20
75819;DHT22;64453;51.944;9.796;2023-07-28T10:38:29;23.20;79.10
75819;DHT22;64453;51.944;9.796;2023-07-28T10:41:17;23.30;76.60
75819;DHT22;64453;51.944;9.796;2023-07-28T10:43:45;23.00;77.90
75819;DHT22;64453;51.944;9.796;2023-07-28T10:46:15;23.10;78.00
75819;DHT22;64453;51.944;9.796;2023-07-28T10:48:45;23.00;76.70
75819;DHT22;64453;51.944;9.796;2023-07-28T10:51:25;23.20;75.80
75819;DHT22;64453;51.944;9.796;2023-07-28T10:53:56;23.30;77.50
75819;DHT22;64453;51.944;9.796;2023-07-28T10:56:24;23.40;76.20
75819;DHT22;64453;51.944;9.796;2023-07-28T10:58:56;23.30;75.10
75819;DHT22;64453;51.944;9.796;2023-07-28T11:01:30;23.10;75.40
75819;DHT22;64453;51.944;9.796;2023-07-28T11:04:07;23.20;75.90
75819;DHT22;64453;51.944;9.796;2023-07-28T11:06:37;23.30;75.20
75819;DHT22;64453;51.944;9.796;2023-07-28T11:09:05;23.40;75.50
75819;DHT22;64453;51.944;9.796;2023-07-28T11:11:34;23.30;76.30
75819;DHT22;64453;51.944;9.796;2023-07-28T11:14:02;23.10;76.40
75819;DHT22;64453;51.944;9.796;2023-07-28T11:16:30;23.40;75.70
75819;DHT22;64453;51.944;9.796;2023-07-28T11:19:00;23.40;75.10
75819;DHT22;64453;51.944;9.796;2023-07-28T11:21:28;23.10;74.00
75819;DHT22;64453;51.944;9.796;2023-07-28T11:23:58;23.00;76.60
75819;DHT22;64453;51.944;9.796;2023-07-28T11:26:25;23.30;76.00
75819;DHT22;64453;51.944;9.796;2023-07-28T11:28:53;23.60;74.80
75819;DHT22;64453;51.944;9.796;2023-07-28T11:31:23;23.80;73.20
75819;DHT22;64453;51.944;9.796;2023-07-28T11:33:54;23.90;73.00
75819;DHT22;64453;51.944;9.796;2023-07-28T11:36:23;24.00;71.30
75819;DHT22;64453;51.944;9.796;2023-07-28T11:38:51;24.00;71.40
75819;DHT22;64453;51.944;9.796;2023-07-28T11:41:21;24.20;71.70
75819;DHT22;64453;51.944;9.796;2023-07-28T11:43:49;24.10;71.10
75819;DHT22;64453;51.944;9.796;2023-07-28T11:46:33;23.90;71.20
75819;DHT22;64453;51.944;9.796;2023-07-28T11:49:12;23.90;72.50
75819;DHT22;64453;51.944;9.796;2023-07-28T11:51:41;23.80;72.80
75819;DHT22;64453;51.944;9.796;2023-07-28T11:54:11;23.90;70.60
75819;DHT22;64453;51.944;9.796;2023-07-28T11:56:45;23.70;71.80
75819;DHT22;64453;51.944;9.796;2023-07-28T11:59:15;24.00;71.60
75819;DHT22;64453;51.944;9.796;2023-07-28T12:01:55;24.10;71.30
75819;DHT22;64453;51.944;9.796;2023-07-28T12:04:24;24.20;70.30
75819;DHT22;64453;51.944;9.796;2023-07-28T12:07:07;23.90;71.30
75819;DHT22;64453;51.944;9.796;2023-07-28T12:09:50;23.70;71.10
75819;DHT22;64453;51.944;9.796;2023-07-28T12:12:25;23.90;73.10
75819;DHT22;64453;51.944;9.796;2023-07-28T12:14:54;24.10;72.40
75819;DHT22;64453;51.944;9.796;2023-07-28T12:17:25;24.30;71.60
75819;DHT22;64453;51.944;9.796;2023-07-28T12:20:02;23.70;70.20
75819;DHT22;64453;51.944;9.796;2023-07-28T12:22:36;23.90;71.60
75819;DHT22;64453;51.944;9.796;2023-07-28T12:25:05;23.90;71.50
75819;DHT22;64453;51.944;9.796;2023-07-28T12:27:34;24.10;71.60
75819;DHT22;64453;51.944;9.796;2023-07-28T12:30:02;23.90;71.70
75819;DHT22;64453;51.944;9.796;2023-07-28T12:32:32;23.80;71.20
75819;DHT22;64453;51.944;9.796;2023-07-28T12:35:00;23.90;70.90
75819;DHT22;64453;51.944;9.796;2023-07-28T12:37:27;24.10;68.60
75819;DHT22;64453;51.944;9.796;2023-07-28T12:39:58;23.60;69.00
75819;DHT22;64453;51.944;9.796;2023-07-28T12:42:27;23.80;69.50
75819;DHT22;64453;51.944;9.796;2023-07-28T12:44:55;24.10;69.70
75819;DHT22;64453;51.944;9.796;2023-07-28T12:47:23;24.20;69.70
75819;DHT22;64453;51.944;9.796;2023-07-28T12:49:50;24.00;70.20
75819;DHT22;64453;51.944;9.796;2023-07-28T12:52:18;24.30;71.00
75819;DHT22;64453;51.944;9.796;2023-07-28T12:54:46;24.50;70.00
75819;DHT22;64453;51.944;9.796;2023-07-28T12:57:14;24.50;68.30
75819;DHT22;64453;51.944;9.796;2023-07-28T12:59:41;24.60;67.90
75819;DHT22;64453;51.944;9.796;2023-07-28T13:02:09;24.80;67.60
75819;DHT22;64453;51.944;9.796;2023-07-28T13:04:36;25.00;67.40
75819;DHT22;64453;51.944;9.796;2023-07-28T13:07:04;25.00;65.60
75819;DHT22;64453;51.944;9.796;2023-07-28T13:09:32;25.00;66.00
75819;DHT22;64453;51.944;9.796;2023-07-28T13:11:59;25.00;67.30
75819;DHT22;64453;51.944;9.796;2023-07-28T13:14:26;25.10;67.60
75819;DHT22;64453;51.944;9.796;2023-07-28T13:16:54;25.30;67.10
75819;DHT22;64453;51.944;9.796;2023-07-28T13:19:23;25.20;66.60
75819;DHT22;64453;51.944;9.796;2023-07-28T13:21:50;25.10;66.90
75819;DHT22;64453;51.944;9.796;2023-07-28T13:24:17;25.00;66.00
75819;DHT22;64453;51.944;9.796;2023-07-28T13:26:44;25.10;66.00
75819;DHT22;64453;51.944;9.796;2023-07-28T13:29:11;25.20;65.90
75819;DHT22;64453;51.944;9.796;2023-07-28T13:31:38;25.20;65.90
75819;DHT22;64453;51.944;9.796;2023-07-28T13:34:06;25.00;66.40
75819;DHT22;64453;51.944;9.796;2023-07-28T13:36:34;25.30;66.60
75819;DHT22;64453;51.944;9.796;2023-07-28T13:39:01;25.30;65.70
75819;DHT22;64453;51.944;9.796;2023-07-28T13:41:29;25.00;63.90
75819;DHT22;64453;51.944;9.796;2023-07-28T13:43:56;25.20;63.20
75819;DHT22;64453;51.944;9.796;2023-07-28T13:46:23;25.20;62.40
75819;DHT22;64453;51.944;9.796;2023-07-28T13:48:50;25.20;62.60
75819;DHT22;64453;51.944;9.796;2023-07-28T13:51:17;25.20;62.80
75819;DHT22;64453;51.944;9.796;2023-07-28T13:53:46;25.60;63.10
75819;DHT22;64453;51.944;9.796;2023-07-28T13:56:13;25.70;62.70
75819;DHT22;64453;51.944;9.796;2023-07-28T13:58:40;25.50;61.10
75819;DHT22;64453;51.944;9.796;2023-07-28T14:01:07;25.70;62.80
75819;DHT22;64453;51.944;9.796;2023-07-28T14:03:34;25.50;61.20
75819;DHT22;64453;51.944;9.796;2023-07-28T14:06:02;25.70;61.50
75819;DHT22;64453;51.944;9.796;2023-07-28T14:08:29;25.70;61.50
75819;DHT22;64453;51.944;9.796;2023-07-28T14:10:58;26.00;60.30
75819;DHT22;64453;51.944;9.796;2023-07-28T14:13:25;26.10;60.30
75819;DHT22;64453;51.944;9.796;2023-07-28T14:15:52;26.10;58.80
75819;DHT22;64453;51.944;9.796;2023-07-28T14:18:19;26.20;59.70
75819;DHT22;64453;51.944;9.796;2023-07-28T14:20:46;26.30;59.10
75819;DHT22;64453;51.944;9.796;2023-07-28T14:23:23;26.20;59.10
75819;DHT22;64453;51.944;9.796;2023-07-28T14:25:51;26.20;60.60
75819;DHT22;64453;51.944;9.796;2023-07-28T14:28:21;26.20;59.50
75819;DHT22;64453;51.944;9.796;2023-07-28T14:30:49;26.40;59.40
75819;DHT22;64453;51.944;9.796;2023-07-28T14:33:18;26.50;59.20
75819;DHT22;64453;51.944;9.796;2023-07-28T14:35:46;26.70;58.70
75819;DHT22;64453;51.944;9.796;2023-07-28T14:38:14;26.60;57.90
75819;DHT22;64453;51.944;9.796;2023-07-28T14:40:42;26.50;58.40
75819;DHT22;64453;51.944;9.796;2023-07-28T14:43:13;26.50;58.20
75819;DHT22;64453;51.944;9.796;2023-07-28T14:45:41;26.30;58.20
75819;DHT22;64453;51.944;9.796;2023-07-28T14:48:10;26.20;58.90
75819;DHT22;64453;51.944;9.796;2023-07-28T14:50:37;26.50;57.60
75819;DHT22;64453;51.944;9.796;2023-07-28T14:53:29;26.50;56.80
75819;DHT22;64453;51.944;9.796;2023-07-28T14:56:00;26.30;57.60
75819;DHT22;64453;51.944;9.796;2023-07-28T14:58:29;26.50;56.70
75819;DHT22;64453;51.944;9.796;2023-07-28T15:00:58;26.80;56.50
75819;DHT22;64453;51.944;9.796;2023-07-28T15:03:28;26.90;56.20
75819;DHT22;64453;51.944;9.796;2023-07-28T15:05:57;26.80;54.90
75819;DHT22;64453;51.944;9.796;2023-07-28T15:08:25;26.90;55.00
75819;DHT22;64453;51.944;9.796;2023-07-28T15:10:53;26.80;55.90
75819;DHT22;64453;51.944;9.796;2023-07-28T15:13:20;26.90;56.50
75819;DHT22;64453;51.944;9.796;2023-07-28T15:15:48;26.90;55.00
75819;DHT22;64453;51.944;9.796;2023-07-28T15:18:18;26.80;55.20
75819;DHT22;64453;51.944;9.796;2023-07-28T15:20:45;27.00;54.90
75819;DHT22;64453;51.944;9.796;2023-07-28T15:23:13;27.00;56.20
75819;DHT22;64453;51.944;9.796;2023-07-28T15:25:41;27.00;54.60
75819;DHT22;64453;51.944;9.796;2023-07-28T15:28:09;27.00;55.50
75819;DHT22;64453;51.944;9.796;2023-07-28T15:30:37;27.20;55.00
75819;DHT22;64453;51.944;9.796;2023-07-28T15:33:05;27.60;54.40
75819;DHT22;64453;51.944;9.796;2023-07-28T15:35:34;28.50;53.10
75819;DHT22;64453;51.944;9.796;2023-07-28T15:38:02;28.80;52.30